sensor_id;sensor_type;location;lat;lon;timestamp;temperature;humidity
76878;DHT22;65843;50.692;12.844;2023-10-31T00:00:55;14.90;76.30
76878;DHT22;65843;50.692;12.844;2023-10-31T00:01:56;14.90;76.20
76878;DHT22;65843;50.692;12.844;2023-10-31T00:02:57;14.90;76.30
76878;DHT22;65843;50.692;12.844;2023-10-31T00:03:57;14.90;76.40
76878;DHT22;65843;50.692;12.844;2023-10-31T00:04:58;14.90;76.50
76878;DHT22;65843;50.692;12.844;2023-10-31T00:05:59;14.90;76.30
76878;DHT22;65843;50.692;12.844;2023-10-31T00:07:00;14.90;76.50
76878;DHT22;65843;50.692;12.844;2023-10-31T00:08:01;14.90;76.90
76878;DHT22;65843;50.692;12.844;2023-10-31T00:09:02;14.90;76.80
76878;DHT22;65843;50.692;12.844;2023-10-31T00:10:03;14.90;76.70
76878;DHT22;65843;50.692;12.844;2023-10-31T00:11:04;14.90;76.70
76878;DHT22;65843;50.692;12.844;2023-10-31T00:12:05;14.90;76.70
76878;DHT22;65843;50.692;12.844;2023-10-31T00:13:05;14.90;76.70
76878;DHT22;65843;50.692;12.844;2023-10-31T00:14:06;14.90;76.80
76878;DHT22;65843;50.692;12.844;2023-10-31T00:15:07;14.90;76.80
76878;DHT22;65843;50.692;12.844;2023-10-31T00:16:08;14.90;76.80
76878;DHT22;65843;50.692;12.844;2023-10-31T00:17:09;14.90;76.80
76878;DHT22;65843;50.692;12.844;2023-10-31T00:18:10;14.90;76.70
76878;DHT22;65843;50.692;12.844;2023-10-31T00:19:11;14.80;76.70
76878;DHT22;65843;50.692;12.844;2023-10-31T00:20:12;14.80;76.80
76878;DHT22;65843;50.692;12.844;2023-10-31T00:21:13;14.80;77.00
76878;DHT22;65843;50.692;12.844;2023-10-31T00:22:14;14.80;77.00
76878;DHT22;65843;50.692;12.844;2023-10-31T00:23:15;14.80;77.20
76878;DHT22;65843;50.692;12.844;2023-10-31T00:24:15;14.80;77.10
76878;DHT22;65843;50.692;12.844;2023-10-31T00:25:16;14.80;77.00
76878;DHT22;65843;50.692;12.844;2023-10-31T00:26:17;14.80;77.20
76878;DHT22;65843;50.692;12.844;2023-10-31T00:27:18;14.80;77.20
76878;DHT22;65843;50.692;12.844;2023-10-31T00:28:19;14.90;76.80
76878;DHT22;65843;50.692;12.844;2023-10-31T00:29:20;14.80;77.00
76878;DHT22;65843;50.692;12.844;2023-10-31T00:30:21;14.80;76.90
76878;DHT22;65843;50.692;12.844;2023-10-31T00:31:22;14.80;76.80
76878;DHT22;65843;50.692;12.844;2023-10-31T00:32:22;14.80;76.90
76878;DHT22;65843;50.692;12.844;2023-10-31T00:33:24;14.80;77.10
76878;DHT22;65843;50.692;12.844;2023-10-31T00:34:25;14.80;77.00
76878;DHT22;65843;50.692;12.844;2023-10-31T00:35:26;14.80;77.20
76878;DHT22;65843;50.692;12.844;2023-10-31T00:36:27;14.80;77.20
76878;DHT22;65843;50.692;12.844;2023-10-31T00:37:28;14.80;77.20
76878;DHT22;65843;50.692;12.844;2023-10-31T00:38:28;14.80;77.10
76878;DHT22;65843;50.692;12.844;2023-10-31T00:39:29;14.80;76.70
76878;DHT22;65843;50.692;12.844;2023-10-31T00:40:33;14.80;76.70
76878;DHT22;65843;50.692;12.844;2023-10-31T00:41:34;14.80;76.80
76878;DHT22;65843;50.692;12.844;2023-10-31T00:42:35;14.80;76.70
76878;DHT22;65843;50.692;12.844;2023-10-31T00:43:36;14.90;76.50
76878;DHT22;65843;50.692;12.844;2023-10-31T00:44:37;14.90;76.60
76878;DHT22;65843;50.692;12.844;2023-10-31T00:45:37;14.90;76.50
76878;DHT22;65843;50.692;12.844;2023-10-31T00:46:38;14.90;76.70
76878;DHT22;65843;50.692;12.844;2023-10-31T00:47:39;14.90;76.50
76878;DHT22;65843;50.692;12.844;2023-10-31T00:48:40;14.90;76.60
76878;DHT22;65843;50.692;12.844;2023-10-31T00:49:41;14.90;76.50
76878;DHT22;65843;50.692;12.844;2023-10-31T00:50:43;14.90;76.60
76878;DHT22;65843;50.692;12.844;2023-10-31T00:51:44;14.90;76.50
76878;DHT22;65843;50.692;12.844;2023-10-31T00:52:44;14.90;76.50
76878;DHT22;65843;50.692;12.844;2023-10-31T00:53:45;14.90;76.50
76878;DHT22;65843;50.692;12.844;2023-10-31T00:54:46;14.90;76.50
76878;DHT22;65843;50.692;12.844;2023-10-31T00:55:47;14.90;76.50
76878;DHT22;65843;50.692;12.844;2023-10-31T00:56:48;14.90;76.50
76878;DHT22;65843;50.692;12.844;2023-10-31T00:57:49;14.90;76.40
76878;DHT22;65843;50.692;12.844;2023-10-31T00:58:50;14.90;76.50
76878;DHT22;65843;50.692;12.844;2023-10-31T00:59:50;14.90;76.70
76878;DHT22;65843;50.692;12.844;2023-10-31T01:00:51;14.90;76.80
76878;DHT22;65843;50.692;12.844;2023-10-31T01:01:52;14.90;76.80
76878;DHT22;65843;50.692;12.844;2023-10-31T01:02:53;14.90;76.80
76878;DHT22;65843;50.692;12.844;2023-10-31T01:03:54;14.90;76.90
76878;DHT22;65843;50.692;12.844;2023-10-31T01:04:55;14.90;76.70
76878;DHT22;65843;50.692;12.844;2023-10-31T01:05:55;14.80;76.80
76878;DHT22;65843;50.692;12.844;2023-10-31T01:06:56;14.90;77.00
76878;DHT22;65843;50.692;12.844;2023-10-31T01:07:57;14.90;77.00
76878;DHT22;65843;50.692;12.844;2023-10-31T01:08:58;14.90;77.00
76878;DHT22;65843;50.692;12.844;2023-10-31T01:09:59;14.90;76.80
76878;DHT22;65843;50.692;12.844;2023-10-31T01:11:00;14.90;77.00
76878;DHT22;65843;50.692;12.844;2023-10-31T01:12:01;14.90;77.10
76878;DHT22;65843;50.692;12.844;2023-10-31T01:13:01;14.90;77.00
76878;DHT22;65843;50.692;12.844;2023-10-31T01:14:02;14.80;77.00
76878;DHT22;65843;50.692;12.844;2023-10-31T01:15:03;14.80;76.90
76878;DHT22;65843;50.692;12.844;2023-10-31T01:16:05;14.80;76.90
76878;DHT22;65843;50.692;12.844;2023-10-31T01:17:06;14.80;77.10
76878;DHT22;65843;50.692;12.844;2023-10-31T01:18:07;14.80;77.10
76878;DHT22;65843;50.692;12.844;2023-10-31T01:19:08;14.80;77.30
76878;DHT22;65843;50.692;12.844;2023-10-31T01:20:09;14.80;77.20
76878;DHT22;65843;50.692;12.844;2023-10-31T01:21:12;14.80;77.20
76878;DHT22;65843;50.692;12.844;2023-10-31T01:22:13;14.80;77.10
76878;DHT22;65843;50.692;12.844;2023-10-31T01:23:14;14.80;77.30
76878;DHT22;65843;50.692;12.844;2023-10-31T01:24:14;14.80;77.20
76878;DHT22;65843;50.692;12.844;2023-10-31T01:25:15;14.80;77.10
76878;DHT22;65843;50.692;12.844;2023-10-31T01:26:16;14.80;77.10
76878;DHT22;65843;50.692;12.844;2023-10-31T01:27:17;14.80;77.00
76878;DHT22;65843;50.692;12.844;2023-10-31T01:28:18;14.80;77.10
76878;DHT22;65843;50.692;12.844;2023-10-31T01:29:19;14.80;77.20
76878;DHT22;65843;50.692;12.844;2023-10-31T01:30:20;14.80;77.10
76878;DHT22;65843;50.692;12.844;2023-10-31T01:31:21;14.80;77.10
76878;DHT22;65843;50.692;12.844;2023-10-31T01:32:22;14.80;77.30
76878;DHT22;65843;50.692;12.844;2023-10-31T01:33:23;14.80;77.30
76878;DHT22;65843;50.692;12.844;2023-10-31T01:34:24;14.80;77.30
76878;DHT22;65843;50.692;12.844;2023-10-31T01:35:24;14.80;77.20
76878;DHT22;65843;50.692;12.844;2023-10-31T01:36:25;14.80;77.20
76878;DHT22;65843;50.692;12.844;2023-10-31T01:37:27;14.80;76.90
76878;DHT22;65843;50.692;12.844;2023-10-31T01:38:28;14.80;77.00
76878;DHT22;65843;50.692;12.844;2023-10-31T01:39:29;14.80;76.90
76878;DHT22;65843;50.692;12.844;2023-10-31T01:40:29;14.80;76.80
76878;DHT22;65843;50.692;12.844;2023-10-31T01:41:30;14.80;76.80
76878;DHT22;65843;50.692;12.844;2023-10-31T01:42:31;14.90;76.80
76878;DHT22;65843;50.692;12.844;2023-10-31T01:43:32;14.90;76.80
76878;DHT22;65843;50.692;12.844;2023-10-31T01:44:33;14.90;76.90
76878;DHT22;65843;50.692;12.844;2023-10-31T01:45:34;14.90;76.70
76878;DHT22;65843;50.692;12.844;2023-10-31T01:46:35;14.90;76.50
76878;DHT22;65843;50.692;12.844;2023-10-31T01:47:36;14.90;76.60
76878;DHT22;65843;50.692;12.844;2023-10-31T01:48:37;14.90;76.60
76878;DHT22;65843;50.692;12.844;2023-10-31T01:49:39;14.90;76.40
76878;DHT22;65843;50.692;12.844;2023-10-31T01:50:40;14.90;76.40
76878;DHT22;65843;50.692;12.844;2023-10-31T01:51:41;14.90;76.70
76878;DHT22;65843;50.692;12.844;2023-10-31T01:52:42;14.90;76.60
76878;DHT22;65843;50.692;12.844;2023-10-31T01:53:43;14.90;76.80
76878;DHT22;65843;50.692;12.844;2023-10-31T01:54:44;14.90;76.80
76878;DHT22;65843;50.692;12.844;2023-10-31T01:55:45;14.90;76.70
76878;DHT22;65843;50.692;12.844;2023-10-31T01:56:46;14.90;76.60
76878;DHT22;65843;50.692;12.844;2023-10-31T01:57:49;14.90;76.50
76878;DHT22;65843;50.692;12.844;2023-10-31T01:58:50;14.90;76.10
76878;DHT22;65843;50.692;12.844;2023-10-31T01:59:51;14.90;76.40
76878;DHT22;65843;50.692;12.844;2023-10-31T02:00:52;14.90;76.60
76878;DHT22;65843;50.692;12.844;2023-10-31T02:01:53;14.80;76.50
76878;DHT22;65843;50.692;12.844;2023-10-31T02:02:55;14.80;76.80
76878;DHT22;65843;50.692;12.844;2023-10-31T02:03:56;14.80;76.80
76878;DHT22;65843;50.692;12.844;2023-10-31T02:04:57;14.80;76.80
76878;DHT22;65843;50.692;12.844;2023-10-31T02:05:58;14.80;76.80
76878;DHT22;65843;50.692;12.844;2023-10-31T02:06:59;14.80;76.80
76878;DHT22;65843;50.692;12.844;2023-10-31T02:08:00;14.80;76.80
76878;DHT22;65843;50.692;12.844;2023-10-31T02:09:01;14.80;76.90
76878;DHT22;65843;50.692;12.844;2023-10-31T02:10:02;14.80;76.60
76878;DHT22;65843;50.692;12.844;2023-10-31T02:11:03;14.80;76.60
76878;DHT22;65843;50.692;12.844;2023-10-31T02:12:05;14.80;76.80
76878;DHT22;65843;50.692;12.844;2023-10-31T02:13:12;14.80;76.60
76878;DHT22;65843;50.692;12.844;2023-10-31T02:14:13;14.80;76.70
76878;DHT22;65843;50.692;12.844;2023-10-31T02:15:14;14.80;76.70
76878;DHT22;65843;50.692;12.844;2023-10-31T02:16:15;14.80;76.60
76878;DHT22;65843;50.692;12.844;2023-10-31T02:17:16;14.80;76.40
76878;DHT22;65843;50.692;12.844;2023-10-31T02:18:17;14.80;76.80
76878;DHT22;65843;50.692;12.844;2023-10-31T02:19:19;14.80;76.50
76878;DHT22;65843;50.692;12.844;2023-10-31T02:20:20;14.70;77.00
76878;DHT22;65843;50.692;12.844;2023-10-31T02:21:21;14.70;76.90
76878;DHT22;65843;50.692;12.844;2023-10-31T02:22:23;14.70;77.00
76878;DHT22;65843;50.692;12.844;2023-10-31T02:23:23;14.70;76.80
76878;DHT22;65843;50.692;12.844;2023-10-31T02:24:24;14.70;76.80
76878;DHT22;65843;50.692;12.844;2023-10-31T02:25:25;14.70;76.90
76878;DHT22;65843;50.692;12.844;2023-10-31T02:26:30;14.70;77.00
76878;DHT22;65843;50.692;12.844;2023-10-31T02:27:31;14.70;76.90
76878;DHT22;65843;50.692;12.844;2023-10-31T02:28:32;14.70;77.00
76878;DHT22;65843;50.692;12.844;2023-10-31T02:29:33;14.70;77.50
76878;DHT22;65843;50.692;12.844;2023-10-31T02:30:34;14.70;77.30
76878;DHT22;65843;50.692;12.844;2023-10-31T02:31:35;14.70;77.20
76878;DHT22;65843;50.692;12.844;2023-10-31T02:32:36;14.80;76.90
76878;DHT22;65843;50.692;12.844;2023-10-31T02:33:37;14.80;76.90
76878;DHT22;65843;50.692;12.844;2023-10-31T02:34:38;14.80;76.90
76878;DHT22;65843;50.692;12.844;2023-10-31T02:35:39;14.80;76.50
76878;DHT22;65843;50.692;12.844;2023-10-31T02:36:40;14.80;76.50
76878;DHT22;65843;50.692;12.844;2023-10-31T02:37:41;14.80;76.30
76878;DHT22;65843;50.692;12.844;2023-10-31T02:38:41;14.80;76.60
76878;DHT22;65843;50.692;12.844;2023-10-31T02:39:42;14.80;76.50
76878;DHT22;65843;50.692;12.844;2023-10-31T02:40:43;14.80;76.20
76878;DHT22;65843;50.692;12.844;2023-10-31T02:41:44;14.90;76.50
76878;DHT22;65843;50.692;12.844;2023-10-31T02:42:45;14.90;76.40
76878;DHT22;65843;50.692;12.844;2023-10-31T02:43:47;14.90;76.50
76878;DHT22;65843;50.692;12.844;2023-10-31T02:44:47;14.90;76.40
76878;DHT22;65843;50.692;12.844;2023-10-31T02:45:48;14.90;76.60
76878;DHT22;65843;50.692;12.844;2023-10-31T02:46:49;14.90;76.60
76878;DHT22;65843;50.692;12.844;2023-10-31T02:47:50;14.90;76.50
76878;DHT22;65843;50.692;12.844;2023-10-31T02:48:51;14.90;76.40
76878;DHT22;65843;50.692;12.844;2023-10-31T02:49:52;14.90;76.20
76878;DHT22;65843;50.692;12.844;2023-10-31T02:50:53;14.90;76.40
76878;DHT22;65843;50.692;12.844;2023-10-31T02:51:54;14.90;76.40
76878;DHT22;65843;50.692;12.844;2023-10-31T02:52:54;14.90;76.20
76878;DHT22;65843;50.692;12.844;2023-10-31T02:53:55;14.90;76.40
76878;DHT22;65843;50.692;12.844;2023-10-31T02:54:56;14.80;76.60
76878;DHT22;65843;50.692;12.844;2023-10-31T02:55:57;14.90;76.50
76878;DHT22;65843;50.692;12.844;2023-10-31T02:56:58;14.80;76.60
76878;DHT22;65843;50.692;12.844;2023-10-31T02:57:59;14.80;76.50
76878;DHT22;65843;50.692;12.844;2023-10-31T02:59:00;14.80;76.50
76878;DHT22;65843;50.692;12.844;2023-10-31T03:00:00;14.80;76.40
76878;DHT22;65843;50.692;12.844;2023-10-31T03:01:02;14.80;76.50
76878;DHT22;65843;50.692;12.844;2023-10-31T03:02:03;14.80;76.70
76878;DHT22;65843;50.692;12.844;2023-10-31T03:03:04;14.80;77.20
76878;DHT22;65843;50.692;12.844;2023-10-31T03:04:05;14.80;77.00
76878;DHT22;65843;50.692;12.844;2023-10-31T03:05:06;14.80;76.80
76878;DHT22;65843;50.692;12.844;2023-10-31T03:06:07;14.80;77.00
76878;DHT22;65843;50.692;12.844;2023-10-31T03:07:08;14.80;77.10
76878;DHT22;65843;50.692;12.844;2023-10-31T03:08:09;14.80;76.90
76878;DHT22;65843;50.692;12.844;2023-10-31T03:09:12;14.80;76.80
76878;DHT22;65843;50.692;12.844;2023-10-31T03:10:13;14.80;77.10
76878;DHT22;65843;50.692;12.844;2023-10-31T03:11:23;14.80;76.90
76878;DHT22;65843;50.692;12.844;2023-10-31T03:12:24;14.80;77.00
76878;DHT22;65843;50.692;12.844;2023-10-31T03:13:25;14.80;77.00
76878;DHT22;65843;50.692;12.844;2023-10-31T03:14:26;14.80;77.00
76878;DHT22;65843;50.692;12.844;2023-10-31T03:15:27;14.80;76.90
76878;DHT22;65843;50.692;12.844;2023-10-31T03:16:28;14.80;76.60
76878;DHT22;65843;50.692;12.844;2023-10-31T03:17:29;14.80;76.90
76878;DHT22;65843;50.692;12.844;2023-10-31T03:18:30;14.80;77.00
76878;DHT22;65843;50.692;12.844;2023-10-31T03:19:31;14.80;77.10
76878;DHT22;65843;50.692;12.844;2023-10-31T03:20:32;14.80;77.20
76878;DHT22;65843;50.692;12.844;2023-10-31T03:21:33;14.80;77.50
76878;DHT22;65843;50.692;12.844;2023-10-31T03:22:34;14.80;77.30
76878;DHT22;65843;50.692;12.844;2023-10-31T03:23:35;14.80;77.50
76878;DHT22;65843;50.692;12.844;2023-10-31T03:24:35;14.80;77.60
76878;DHT22;65843;50.692;12.844;2023-10-31T03:25:36;14.80;77.30
76878;DHT22;65843;50.692;12.844;2023-10-31T03:26:37;14.80;76.80
76878;DHT22;65843;50.692;12.844;2023-10-31T03:27:38;14.80;76.90
76878;DHT22;65843;50.692;12.844;2023-10-31T03:28:39;14.80;76.90
76878;DHT22;65843;50.692;12.844;2023-10-31T03:29:40;14.80;76.70
76878;DHT22;65843;50.692;12.844;2023-10-31T03:30:41;14.80;76.80
76878;DHT22;65843;50.692;12.844;2023-10-31T03:31:42;14.80;76.70
76878;DHT22;65843;50.692;12.844;2023-10-31T03:32:43;14.80;76.70
76878;DHT22;65843;50.692;12.844;2023-10-31T03:33:43;14.80;76.70
76878;DHT22;65843;50.692;12.844;2023-10-31T03:34:44;14.90;76.60
76878;DHT22;65843;50.692;12.844;2023-10-31T03:35:45;14.80;76.60
76878;DHT22;65843;50.692;12.844;2023-10-31T03:36:46;14.90;76.90
76878;DHT22;65843;50.692;12.844;2023-10-31T03:37:47;14.90;76.50
76878;DHT22;65843;50.692;12.844;2023-10-31T03:38:48;14.90;76.60
76878;DHT22;65843;50.692;12.844;2023-10-31T03:39:49;14.90;76.50
76878;DHT22;65843;50.692;12.844;2023-10-31T03:40:50;14.90;76.50
76878;DHT22;65843;50.692;12.844;2023-10-31T03:41:50;14.90;76.30
76878;DHT22;65843;50.692;12.844;2023-10-31T03:42:51;14.90;76.10
76878;DHT22;65843;50.692;12.844;2023-10-31T03:43:52;14.90;75.80
76878;DHT22;65843;50.692;12.844;2023-10-31T03:44:53;14.90;75.90
76878;DHT22;65843;50.692;12.844;2023-10-31T03:45:54;14.80;76.20
76878;DHT22;65843;50.692;12.844;2023-10-31T03:46:55;14.80;76.10
76878;DHT22;65843;50.692;12.844;2023-10-31T03:47:56;14.80;76.20
76878;DHT22;65843;50.692;12.844;2023-10-31T03:48:57;14.80;76.50
76878;DHT22;65843;50.692;12.844;2023-10-31T03:49:57;14.80;76.40
76878;DHT22;65843;50.692;12.844;2023-10-31T03:50:58;14.80;76.50
76878;DHT22;65843;50.692;12.844;2023-10-31T03:51:59;14.80;76.40
76878;DHT22;65843;50.692;12.844;2023-10-31T03:53:00;14.80;76.30
76878;DHT22;65843;50.692;12.844;2023-10-31T03:54:01;14.80;76.70
76878;DHT22;65843;50.692;12.844;2023-10-31T03:55:02;14.80;76.30
76878;DHT22;65843;50.692;12.844;2023-10-31T03:56:03;14.80;76.50
76878;DHT22;65843;50.692;12.844;2023-10-31T03:57:04;14.80;76.50
76878;DHT22;65843;50.692;12.844;2023-10-31T03:58:05;14.80;76.60
76878;DHT22;65843;50.692;12.844;2023-10-31T03:59:06;14.80;76.50
76878;DHT22;65843;50.692;12.844;2023-10-31T04:00:07;14.80;76.70
76878;DHT22;65843;50.692;12.844;2023-10-31T04:01:08;14.80;76.70
76878;DHT22;65843;50.692;12.844;2023-10-31T04:02:09;14.70;76.50
76878;DHT22;65843;50.692;12.844;2023-10-31T04:03:10;14.80;76.60
76878;DHT22;65843;50.692;12.844;2023-10-31T04:04:11;14.80;76.70
76878;DHT22;65843;50.692;12.844;2023-10-31T04:05:12;14.70;76.20
76878;DHT22;65843;50.692;12.844;2023-10-31T04:06:13;14.80;76.30
76878;DHT22;65843;50.692;12.844;2023-10-31T04:07:13;14.70;76.20
76878;DHT22;65843;50.692;12.844;2023-10-31T04:08:14;14.70;76.50
76878;DHT22;65843;50.692;12.844;2023-10-31T04:09:15;14.70;76.30
76878;DHT22;65843;50.692;12.844;2023-10-31T04:10:17;14.70;76.20
76878;DHT22;65843;50.692;12.844;2023-10-31T04:11:18;14.70;76.40
76878;DHT22;65843;50.692;12.844;2023-10-31T04:12:19;14.70;76.70
76878;DHT22;65843;50.692;12.844;2023-10-31T04:13:20;14.70;77.00
76878;DHT22;65843;50.692;12.844;2023-10-31T04:14:21;14.70;76.70
76878;DHT22;65843;50.692;12.844;2023-10-31T04:15:22;14.70;76.80
76878;DHT22;65843;50.692;12.844;2023-10-31T04:16:23;14.70;76.70
76878;DHT22;65843;50.692;12.844;2023-10-31T04:17:24;14.70;76.70
76878;DHT22;65843;50.692;12.844;2023-10-31T04:18:25;14.70;76.60
76878;DHT22;65843;50.692;12.844;2023-10-31T04:19:26;14.70;76.60
76878;DHT22;65843;50.692;12.844;2023-10-31T04:20:27;14.70;76.50
76878;DHT22;65843;50.692;12.844;2023-10-31T04:21:28;14.70;76.80
76878;DHT22;65843;50.692;12.844;2023-10-31T04:22:29;14.70;76.40
76878;DHT22;65843;50.692;12.844;2023-10-31T04:23:30;14.70;76.40
76878;DHT22;65843;50.692;12.844;2023-10-31T04:24:31;14.70;76.20
76878;DHT22;65843;50.692;12.844;2023-10-31T04:25:32;14.70;76.20
76878;DHT22;65843;50.692;12.844;2023-10-31T04:26:32;14.70;76.40
76878;DHT22;65843;50.692;12.844;2023-10-31T04:27:33;14.70;76.40
76878;DHT22;65843;50.692;12.844;2023-10-31T04:28:34;14.70;76.50
76878;DHT22;65843;50.692;12.844;2023-10-31T04:29:35;14.70;76.30
76878;DHT22;65843;50.692;12.844;2023-10-31T04:30:36;14.70;76.40
76878;DHT22;65843;50.692;12.844;2023-10-31T04:31:37;14.80;76.30
76878;DHT22;65843;50.692;12.844;2023-10-31T04:32:38;14.80;75.80
76878;DHT22;65843;50.692;12.844;2023-10-31T04:33:39;14.80;76.00
76878;DHT22;65843;50.692;12.844;2023-10-31T04:34:39;14.80;75.90
76878;DHT22;65843;50.692;12.844;2023-10-31T04:35:40;14.80;75.90
76878;DHT22;65843;50.692;12.844;2023-10-31T04:36:41;14.80;75.90
76878;DHT22;65843;50.692;12.844;2023-10-31T04:37:42;14.80;75.80
76878;DHT22;65843;50.692;12.844;2023-10-31T04:38:43;14.80;76.10
76878;DHT22;65843;50.692;12.844;2023-10-31T04:39:44;14.80;76.00
76878;DHT22;65843;50.692;12.844;2023-10-31T04:40:45;14.80;76.10
76878;DHT22;65843;50.692;12.844;2023-10-31T04:41:45;14.80;76.20
76878;DHT22;65843;50.692;12.844;2023-10-31T04:42:46;14.80;76.10
76878;DHT22;65843;50.692;12.844;2023-10-31T04:43:48;14.80;75.90
76878;DHT22;65843;50.692;12.844;2023-10-31T04:44:49;14.80;76.00
76878;DHT22;65843;50.692;12.844;2023-10-31T04:45:50;14.70;75.80
76878;DHT22;65843;50.692;12.844;2023-10-31T04:46:51;14.70;75.80
76878;DHT22;65843;50.692;12.844;2023-10-31T04:47:51;14.70;75.70
76878;DHT22;65843;50.692;12.844;2023-10-31T04:48:52;14.70;75.90
76878;DHT22;65843;50.692;12.844;2023-10-31T04:49:54;14.70;76.10
76878;DHT22;65843;50.692;12.844;2023-10-31T04:50:55;14.70;75.90
76878;DHT22;65843;50.692;12.844;2023-10-31T04:51:57;14.70;75.90
76878;DHT22;65843;50.692;12.844;2023-10-31T04:52:58;14.70;75.90
76878;DHT22;65843;50.692;12.844;2023-10-31T04:53:59;14.70;75.80
76878;DHT22;65843;50.692;12.844;2023-10-31T04:55:00;14.70;76.00
76878;DHT22;65843;50.692;12.844;2023-10-31T04:56:04;14.70;75.90
76878;DHT22;65843;50.692;12.844;2023-10-31T04:57:04;14.70;75.90
76878;DHT22;65843;50.692;12.844;2023-10-31T04:58:05;14.70;76.10
76878;DHT22;65843;50.692;12.844;2023-10-31T04:59:06;14.70;76.20
76878;DHT22;65843;50.692;12.844;2023-10-31T05:00:07;14.70;75.90
76878;DHT22;65843;50.692;12.844;2023-10-31T05:01:09;14.70;75.90
76878;DHT22;65843;50.692;12.844;2023-10-31T05:02:10;14.60;75.80
76878;DHT22;65843;50.692;12.844;2023-10-31T05:03:11;14.70;75.80
76878;DHT22;65843;50.692;12.844;2023-10-31T05:04:12;14.70;75.50
76878;DHT22;65843;50.692;12.844;2023-10-31T05:05:13;14.70;75.70
76878;DHT22;65843;50.692;12.844;2023-10-31T05:06:18;14.60;75.60
76878;DHT22;65843;50.692;12.844;2023-10-31T05:07:19;14.70;75.90
76878;DHT22;65843;50.692;12.844;2023-10-31T05:08:20;14.60;75.60
76878;DHT22;65843;50.692;12.844;2023-10-31T05:09:21;14.60;75.40
76878;DHT22;65843;50.692;12.844;2023-10-31T05:10:24;14.60;75.80
76878;DHT22;65843;50.692;12.844;2023-10-31T05:11:25;14.60;75.80
76878;DHT22;65843;50.692;12.844;2023-10-31T05:12:29;14.60;75.90
76878;DHT22;65843;50.692;12.844;2023-10-31T05:13:30;14.60;75.90
76878;DHT22;65843;50.692;12.844;2023-10-31T05:14:33;14.70;76.20
76878;DHT22;65843;50.692;12.844;2023-10-31T05:15:34;14.60;75.90
76878;DHT22;65843;50.692;12.844;2023-10-31T05:16:41;14.60;75.90
76878;DHT22;65843;50.692;12.844;2023-10-31T05:17:42;14.60;75.80
76878;DHT22;65843;50.692;12.844;2023-10-31T05:18:43;14.60;75.90
76878;DHT22;65843;50.692;12.844;2023-10-31T05:19:44;14.60;75.70
76878;DHT22;65843;50.692;12.844;2023-10-31T05:20:45;14.60;75.50
76878;DHT22;65843;50.692;12.844;2023-10-31T05:21:46;14.60;75.40
76878;DHT22;65843;50.692;12.844;2023-10-31T05:22:47;14.60;75.70
76878;DHT22;65843;50.692;12.844;2023-10-31T05:23:48;14.70;75.60
76878;DHT22;65843;50.692;12.844;2023-10-31T05:24:49;14.70;75.80
76878;DHT22;65843;50.692;12.844;2023-10-31T05:25:49;14.70;75.80
76878;DHT22;65843;50.692;12.844;2023-10-31T05:26:50;14.70;75.70
76878;DHT22;65843;50.692;12.844;2023-10-31T05:27:51;14.70;75.40
76878;DHT22;65843;50.692;12.844;2023-10-31T05:28:53;14.70;75.50
76878;DHT22;65843;50.692;12.844;2023-10-31T05:29:54;14.70;75.10
76878;DHT22;65843;50.692;12.844;2023-10-31T05:30:55;14.70;75.40
76878;DHT22;65843;50.692;12.844;2023-10-31T05:31:56;14.70;75.20
76878;DHT22;65843;50.692;12.844;2023-10-31T05:32:57;14.70;75.20
76878;DHT22;65843;50.692;12.844;2023-10-31T05:33:58;14.70;75.60
76878;DHT22;65843;50.692;12.844;2023-10-31T05:34:58;14.70;75.20
76878;DHT22;65843;50.692;12.844;2023-10-31T05:36:00;14.70;75.40
76878;DHT22;65843;50.692;12.844;2023-10-31T05:37:01;14.70;75.50
76878;DHT22;65843;50.692;12.844;2023-10-31T05:38:02;14.70;75.40
76878;DHT22;65843;50.692;12.844;2023-10-31T05:39:03;14.70;75.50
76878;DHT22;65843;50.692;12.844;2023-10-31T05:40:04;14.70;75.70
76878;DHT22;65843;50.692;12.844;2023-10-31T05:41:07;14.70;75.80
76878;DHT22;65843;50.692;12.844;2023-10-31T05:42:08;14.70;75.80
76878;DHT22;65843;50.692;12.844;2023-10-31T05:43:09;14.70;75.20
76878;DHT22;65843;50.692;12.844;2023-10-31T05:44:10;14.70;75.50
76878;DHT22;65843;50.692;12.844;2023-10-31T05:45:11;14.70;75.60
76878;DHT22;65843;50.692;12.844;2023-10-31T05:46:12;14.70;75.60
76878;DHT22;65843;50.692;12.844;2023-10-31T05:47:16;14.70;75.50
76878;DHT22;65843;50.692;12.844;2023-10-31T05:48:17;14.70;75.80
76878;DHT22;65843;50.692;12.844;2023-10-31T05:49:18;14.70;75.80
76878;DHT22;65843;50.692;12.844;2023-10-31T05:50:20;14.70;75.80
76878;DHT22;65843;50.692;12.844;2023-10-31T05:51:21;14.70;75.70
76878;DHT22;65843;50.692;12.844;2023-10-31T05:52:22;14.70;75.70
76878;DHT22;65843;50.692;12.844;2023-10-31T05:53:23;14.60;75.50
76878;DHT22;65843;50.692;12.844;2023-10-31T05:54:24;14.60;75.40
76878;DHT22;65843;50.692;12.844;2023-10-31T05:55:26;14.60;75.50
76878;DHT22;65843;50.692;12.844;2023-10-31T05:56:27;14.70;75.70
76878;DHT22;65843;50.692;12.844;2023-10-31T05:57:28;14.60;75.50
76878;DHT22;65843;50.692;12.844;2023-10-31T05:58:29;14.60;75.30
76878;DHT22;65843;50.692;12.844;2023-10-31T05:59:29;14.60;75.60
76878;DHT22;65843;50.692;12.844;2023-10-31T06:00:30;14.60;75.70
76878;DHT22;65843;50.692;12.844;2023-10-31T06:01:31;14.60;75.90
76878;DHT22;65843;50.692;12.844;2023-10-31T06:02:38;14.60;75.90
76878;DHT22;65843;50.692;12.844;2023-10-31T06:03:43;14.60;75.80
76878;DHT22;65843;50.692;12.844;2023-10-31T06:04:44;14.60;75.80
76878;DHT22;65843;50.692;12.844;2023-10-31T06:05:45;14.60;75.60
76878;DHT22;65843;50.692;12.844;2023-10-31T06:06:46;14.70;75.50
76878;DHT22;65843;50.692;12.844;2023-10-31T06:07:47;14.70;75.60
76878;DHT22;65843;50.692;12.844;2023-10-31T06:08:54;14.70;75.60
76878;DHT22;65843;50.692;12.844;2023-10-31T06:09:55;14.60;75.60
76878;DHT22;65843;50.692;12.844;2023-10-31T06:10:56;14.60;75.70
76878;DHT22;65843;50.692;12.844;2023-10-31T06:11:57;14.60;75.40
76878;DHT22;65843;50.692;12.844;2023-10-31T06:12:58;14.60;75.40
76878;DHT22;65843;50.692;12.844;2023-10-31T06:13:59;14.60;75.40
76878;DHT22;65843;50.692;12.844;2023-10-31T06:15:00;14.60;75.30
76878;DHT22;65843;50.692;12.844;2023-10-31T06:16:01;14.60;75.20
76878;DHT22;65843;50.692;12.844;2023-10-31T06:17:02;14.60;75.40
76878;DHT22;65843;50.692;12.844;2023-10-31T06:18:03;14.60;75.00
76878;DHT22;65843;50.692;12.844;2023-10-31T06:19:04;14.70;74.80
76878;DHT22;65843;50.692;12.844;2023-10-31T06:20:08;14.60;74.80